FOOL

Libreville Leon M'ba International Airport

Libreville, Gabon
METAR FOOL 181600Z 00000KT 9999 SCT013 FEW020CB 29/23 Q1009 NOSIG
Observed Flight Rules
Oct-18 @ 16:00 UTC (40 minutes ago) Visual Flight Rules
Visibility Clouds
10,000+ meters
  • Scattered at 1,300' AGL
  • Few at 2,000' AGL
Temperatures Readings
Current 29°C / 84°F
Dewpoint 23°C / 73°F
Humidity 70%
Altimeter 29.79" Hg
Pressure 1009 hPa
Elevation 15
METAR FOOL 181600Z 00000KT 9999 SCT013 FEW020CB 29/23 Q1009 NOSIG
Observed Flight Rules
Oct-18 @ 16:00 UTC
(40 minutes ago)
VFR
Clouds
  • Scattered at 1,300' AGL
  • Few at 2,000' AGL
Temperature Dewpoint
29°C / 84°F 23°C / 73°F
Humidity Altimeter Pressure
70% 29.79" Hg 1009 hPa